EIN49W EIDW-LPFR
Flight info
| Callsign | EIN49W |
|---|---|
| Flight time | N/A |
| Altitude | 40000 |
| Route | PELIG2J PELIG DCT ABAGU DCT TUVEN/M079F400 DCT LASNO T9 BEGAS/N0456F390 DCT PINEK DCT ALAGU ALAGU5K ALAGU8A/28 |
| Aircraft | A333/H-SDE3GHIJ2J3J5M1RVWXY/LB2D1 |
Departure
| Time | N/A |
|---|---|
| Airport | Dublin Airport (EIDW) |
Arrival
| Time | 2026-05-05 16:53 |
|---|---|
| Airport | Faro - Gago Coutinho International Airport (LPFR) |
| Time | Latitude | Longitude | Altitude | Speed | Heading |
|---|---|---|---|---|---|
| 2026-05-05 16:21 | 39.72669 | -8.02917 | 39014 ft | 462 kts | 174° |
| 2026-05-05 16:22 | 39.62559 | -8.00300 | 39019 ft | 462 kts | 174° |
| 2026-05-05 16:23 | 39.49973 | -7.97054 | 39020 ft | 461 kts | 174° |
| 2026-05-05 16:23 | 39.40542 | -7.94629 | 39023 ft | 459 kts | 174° |
| 2026-05-05 16:24 | 39.34315 | -7.93032 | 39014 ft | 459 kts | 174° |
| 2026-05-05 16:25 | 39.24927 | -7.90629 | 39016 ft | 457 kts | 174° |
| 2026-05-05 16:25 | 39.18702 | -7.89037 | 38754 ft | 451 kts | 175° |
| 2026-05-05 16:25 | 39.15640 | -7.88253 | 38473 ft | 444 kts | 175° |
| 2026-05-05 16:26 | 39.09656 | -7.86728 | 37626 ft | 439 kts | 175° |
| 2026-05-05 16:26 | 39.03672 | -7.85207 | 36784 ft | 434 kts | 176° |
| 2026-05-05 16:27 | 39.01714 | -7.84710 | 36499 ft | 433 kts | 176° |
| 2026-05-05 16:27 | 38.98756 | -7.83960 | 36067 ft | 432 kts | 176° |
| 2026-05-05 16:27 | 38.94838 | -7.82968 | 35457 ft | 431 kts | 176° |
| 2026-05-05 16:27 | 38.92882 | -7.82473 | 35147 ft | 431 kts | 177° |
| 2026-05-05 16:28 | 38.89929 | -7.81727 | 34612 ft | 432 kts | 177° |
| 2026-05-05 16:28 | 38.86003 | -7.80736 | 33816 ft | 435 kts | 177° |
| 2026-05-05 16:28 | 38.83986 | -7.80228 | 33385 ft | 436 kts | 177° |
| 2026-05-05 16:28 | 38.81041 | -7.79485 | 32813 ft | 436 kts | 177° |
| 2026-05-05 16:29 | 38.78053 | -7.78731 | 32200 ft | 436 kts | 176° |
| 2026-05-05 16:29 | 38.75053 | -7.77974 | 31568 ft | 438 kts | 176° |
| 2026-05-05 16:29 | 38.72089 | -7.77228 | 31051 ft | 437 kts | 176° |
| 2026-05-05 16:29 | 38.69108 | -7.76475 | 30628 ft | 433 kts | 176° |
| 2026-05-05 16:30 | 38.66185 | -7.75738 | 30175 ft | 430 kts | 176° |
| 2026-05-05 16:30 | 38.63255 | -7.75001 | 29630 ft | 427 kts | 176° |
| 2026-05-05 16:30 | 38.60353 | -7.74272 | 29186 ft | 422 kts | 176° |
| 2026-05-05 16:30 | 38.57482 | -7.73551 | 28732 ft | 417 kts | 176° |
| 2026-05-05 16:31 | 38.54676 | -7.72847 | 28281 ft | 413 kts | 176° |
| 2026-05-05 16:31 | 38.51861 | -7.72142 | 27838 ft | 409 kts | 176° |
| 2026-05-05 16:31 | 38.49079 | -7.71447 | 27399 ft | 406 kts | 176° |
| 2026-05-05 16:31 | 38.46311 | -7.70756 | 26944 ft | 403 kts | 175° |
| 2026-05-05 16:32 | 38.43590 | -7.70078 | 26489 ft | 401 kts | 175° |
| 2026-05-05 16:32 | 38.40846 | -7.69394 | 26038 ft | 399 kts | 175° |
| 2026-05-05 16:32 | 38.38161 | -7.68725 | 25599 ft | 397 kts | 174° |
| 2026-05-05 16:32 | 38.35449 | -7.68049 | 25176 ft | 394 kts | 174° |
| 2026-05-05 16:33 | 38.32753 | -7.67378 | 24722 ft | 392 kts | 174° |
| 2026-05-05 16:33 | 38.30110 | -7.66721 | 24285 ft | 391 kts | 174° |
| 2026-05-05 16:33 | 38.27439 | -7.66058 | 23858 ft | 388 kts | 173° |
| 2026-05-05 16:33 | 38.24783 | -7.65397 | 23395 ft | 386 kts | 173° |
| 2026-05-05 16:34 | 38.22181 | -7.64751 | 22933 ft | 383 kts | 173° |
| 2026-05-05 16:34 | 38.19558 | -7.64100 | 22502 ft | 380 kts | 173° |
| 2026-05-05 16:34 | 38.16989 | -7.63463 | 22076 ft | 378 kts | 173° |
| 2026-05-05 16:34 | 38.14401 | -7.62822 | 21655 ft | 376 kts | 173° |
| 2026-05-05 16:35 | 38.11862 | -7.62194 | 21223 ft | 374 kts | 173° |
| 2026-05-05 16:35 | 38.09309 | -7.61620 | 20787 ft | 370 kts | 177° |
| 2026-05-05 16:35 | 38.06742 | -7.61436 | 20303 ft | 367 kts | 183° |
| 2026-05-05 16:35 | 38.04222 | -7.61420 | 19875 ft | 363 kts | 184° |
| 2026-05-05 16:36 | 38.01695 | -7.61430 | 19463 ft | 360 kts | 184° |
| 2026-05-05 16:36 | 37.99218 | -7.61440 | 19054 ft | 359 kts | 184° |
| 2026-05-05 16:36 | 37.96723 | -7.61447 | 18634 ft | 357 kts | 184° |
| 2026-05-05 16:36 | 37.94240 | -7.61451 | 18188 ft | 355 kts | 184° |
| 2026-05-05 16:37 | 37.91795 | -7.61455 | 17755 ft | 353 kts | 183° |
| 2026-05-05 16:37 | 37.89344 | -7.61456 | 17342 ft | 350 kts | 183° |
| 2026-05-05 16:37 | 37.86902 | -7.61458 | 16929 ft | 349 kts | 183° |
| 2026-05-05 16:37 | 37.84507 | -7.61459 | 16523 ft | 347 kts | 183° |
| 2026-05-05 16:38 | 37.82088 | -7.61461 | 16108 ft | 346 kts | 183° |
| 2026-05-05 16:38 | 37.79680 | -7.61463 | 15622 ft | 349 kts | 183° |
| 2026-05-05 16:38 | 37.77218 | -7.61465 | 14983 ft | 356 kts | 183° |
| 2026-05-05 16:38 | 37.74734 | -7.61466 | 14459 ft | 356 kts | 183° |
| 2026-05-05 16:39 | 37.72258 | -7.61466 | 14012 ft | 354 kts | 183° |
| 2026-05-05 16:39 | 37.69830 | -7.61465 | 13540 ft | 352 kts | 182° |
| 2026-05-05 16:39 | 37.67385 | -7.61466 | 13085 ft | 349 kts | 182° |
| 2026-05-05 16:39 | 37.64967 | -7.61466 | 12655 ft | 345 kts | 182° |
| 2026-05-05 16:40 | 37.62572 | -7.61466 | 12224 ft | 342 kts | 182° |
| 2026-05-05 16:40 | 37.60202 | -7.61467 | 11790 ft | 339 kts | 182° |
| 2026-05-05 16:40 | 37.57848 | -7.61468 | 11346 ft | 337 kts | 182° |
| 2026-05-05 16:40 | 37.55516 | -7.61469 | 10909 ft | 334 kts | 182° |
| 2026-05-05 16:41 | 37.53187 | -7.61470 | 10469 ft | 332 kts | 182° |
| 2026-05-05 16:41 | 37.50928 | -7.61470 | 10261 ft | 322 kts | 182° |
| 2026-05-05 16:41 | 37.48743 | -7.61468 | 10179 ft | 307 kts | 182° |
| 2026-05-05 16:41 | 37.46640 | -7.61468 | 10050 ft | 296 kts | 182° |
| 2026-05-05 16:42 | 37.44600 | -7.61468 | 9805 ft | 292 kts | 183° |
| 2026-05-05 16:42 | 37.42560 | -7.61471 | 9417 ft | 293 kts | 182° |
| 2026-05-05 16:42 | 37.40520 | -7.61473 | 9073 ft | 292 kts | 182° |
| 2026-05-05 16:42 | 37.38492 | -7.61475 | 8735 ft | 291 kts | 181° |
| 2026-05-05 16:43 | 37.36494 | -7.61476 | 8414 ft | 289 kts | 181° |
| 2026-05-05 16:43 | 37.34480 | -7.61476 | 8087 ft | 289 kts | 182° |
| 2026-05-05 16:43 | 37.32471 | -7.61477 | 7764 ft | 289 kts | 181° |
| 2026-05-05 16:43 | 37.30457 | -7.61478 | 7438 ft | 289 kts | 182° |
| 2026-05-05 16:44 | 37.28449 | -7.61478 | 7107 ft | 288 kts | 181° |
| 2026-05-05 16:44 | 37.26469 | -7.61479 | 6780 ft | 287 kts | 181° |
| 2026-05-05 16:44 | 37.24472 | -7.61482 | 6450 ft | 287 kts | 181° |
| 2026-05-05 16:44 | 37.22480 | -7.61483 | 6101 ft | 284 kts | 180° |
| 2026-05-05 16:45 | 37.20510 | -7.61482 | 5774 ft | 282 kts | 181° |
| 2026-05-05 16:45 | 37.18574 | -7.61483 | 5590 ft | 273 kts | 180° |
| 2026-05-05 16:45 | 37.16706 | -7.61483 | 5481 ft | 263 kts | 181° |
| 2026-05-05 16:45 | 37.14928 | -7.61483 | 5321 ft | 254 kts | 181° |
| 2026-05-05 16:46 | 37.13171 | -7.61483 | 5004 ft | 250 kts | 181° |
| 2026-05-05 16:46 | 37.11435 | -7.61483 | 4619 ft | 249 kts | 181° |
| 2026-05-05 16:46 | 37.09710 | -7.61559 | 4200 ft | 247 kts | 189° |
| 2026-05-05 16:46 | 37.08099 | -7.62245 | 3728 ft | 245 kts | 214° |
| 2026-05-05 16:47 | 37.06859 | -7.63668 | 3347 ft | 239 kts | 233° |
| 2026-05-05 16:47 | 37.05836 | -7.65285 | 3072 ft | 235 kts | 236° |
| 2026-05-05 16:47 | 37.04850 | -7.66920 | 3004 ft | 236 kts | 236° |
| 2026-05-05 16:47 | 37.03857 | -7.68563 | 3001 ft | 236 kts | 236° |
| 2026-05-05 16:48 | 37.02874 | -7.70173 | 3010 ft | 236 kts | 236° |
| 2026-05-05 16:48 | 37.01876 | -7.71799 | 3006 ft | 235 kts | 235° |
| 2026-05-05 16:48 | 37.00894 | -7.73390 | 2999 ft | 222 kts | 236° |
| 2026-05-05 16:48 | 36.99982 | -7.74858 | 3018 ft | 203 kts | 236° |
| 2026-05-05 16:49 | 36.99214 | -7.76253 | 3017 ft | 189 kts | 253° |
| 2026-05-05 16:49 | 36.98970 | -7.77842 | 2938 ft | 185 kts | 270° |
| 2026-05-05 16:49 | 36.99021 | -7.79430 | 2721 ft | 181 kts | 282° |
| 2026-05-05 16:49 | 36.99237 | -7.80978 | 2458 ft | 180 kts | 283° |
| 2026-05-05 16:50 | 36.99441 | -7.82501 | 2219 ft | 179 kts | 283° |
| 2026-05-05 16:50 | 36.99660 | -7.84047 | 1969 ft | 181 kts | 283° |
| 2026-05-05 16:50 | 36.99880 | -7.85591 | 1720 ft | 176 kts | 283° |
| 2026-05-05 16:50 | 37.00082 | -7.87038 | 1498 ft | 162 kts | 284° |
| 2026-05-05 16:51 | 37.00269 | -7.88353 | 1302 ft | 145 kts | 284° |
| 2026-05-05 16:51 | 37.00442 | -7.89554 | 1110 ft | 137 kts | 282° |
| 2026-05-05 16:51 | 37.00609 | -7.90723 | 927 ft | 137 kts | 282° |
| 2026-05-05 16:51 | 37.00766 | -7.91908 | 758 ft | 138 kts | 282° |
| 2026-05-05 16:52 | 37.00919 | -7.93092 | 550 ft | 138 kts | 283° |
| 2026-05-05 16:52 | 37.01095 | -7.94281 | 395 ft | 139 kts | 286° |
| 2026-05-05 16:52 | 37.01281 | -7.95473 | 173 ft | 139 kts | 286° |
| 2026-05-05 16:52 | 37.01447 | -7.96643 | 29 ft | 129 kts | 286° |
| 2026-05-05 16:53 | 37.01567 | -7.97464 | 25 ft | 64 kts | 280° |
| 2026-05-05 16:53 | 37.01633 | -7.97936 | 29 ft | 37 kts | 279° |
| 2026-05-05 16:53 | 37.01717 | -7.98130 | 32 ft | 15 kts | 309° |
| 2026-05-05 16:53 | 37.01791 | -7.98223 | 27 ft | 12 kts | 339° |
| 2026-05-05 16:54 | 37.01847 | -7.98173 | 25 ft | 11 kts | 76° |
| 2026-05-05 16:54 | 37.01838 | -7.98073 | 26 ft | 13 kts | 101° |
| 2026-05-05 16:54 | 37.01820 | -7.97949 | 27 ft | 16 kts | 100° |
| 2026-05-05 16:54 | 37.01799 | -7.97802 | 29 ft | 18 kts | 100° |
| 2026-05-05 16:55 | 37.01776 | -7.97635 | 26 ft | 21 kts | 99° |
| 2026-05-05 16:55 | 37.01750 | -7.97447 | 27 ft | 23 kts | 101° |
| 2026-05-05 16:55 | 37.01721 | -7.97243 | 25 ft | 24 kts | 101° |
| 2026-05-05 16:55 | 37.01696 | -7.97072 | 27 ft | 15 kts | 100° |
| 2026-05-05 16:56 | 37.01691 | -7.96936 | 28 ft | 15 kts | 62° |
| 2026-05-05 16:56 | 37.01781 | -7.96891 | 27 ft | 14 kts | 7° |
| 2026-05-05 16:56 | 37.01842 | -7.96943 | 28 ft | 9 kts | 292° |
| 2026-05-05 16:56 | 37.01872 | -7.96990 | 30 ft | 5 kts | 334° |
| 2026-05-05 16:57 | 37.01895 | -7.96993 | 28 ft | 3 kts | 2° |
| 2026-05-05 16:57 | 37.01916 | -7.96988 | 28 ft | 2 kts | 11° |
| 2026-05-05 16:57 | 37.01927 | -7.96985 | 28 ft | 1 kts | 10° |
| 2026-05-05 16:57 | 37.01928 | -7.96985 | 28 ft | 0 kts | 10° |